Time;durP1;ratioP1;P1;durP2;ratioP2;P2;SDS_P1;SDS_P2;PMS_P1;PMS_P2;Temp;Humidity;BMP_temperature;BMP_pressure;BME280_temperature;BME280_humidity;BME280_pressure;Samples;Min_cycle;Max_cycle;Signal;HPM_P1;HPM_P2
2022/04/29 00:00:27;;;;;;;;;;;;;;;4.54;100.00;96814.28;1022833;28;19914;-72
2022/04/29 00:00:57;;;;;;;;;;;;;;;4.59;100.00;96819.66;1022813;29;19914;-72
2022/04/29 00:01:30;;;;;;;;;;;;;;;4.57;100.00;96816.50;1026240;28;19973;-72
2022/04/29 00:02:00;;;;;;;;;;;;;;;4.52;100.00;96818.88;1030847;28;19945;-72
2022/04/29 00:02:31;;;;;;;;;;;;;;;4.48;100.00;96814.06;1030505;28;19920;-71
2022/04/29 00:03:02;;;;;;;;;;;;;;;4.52;100.00;96824.06;1030206;28;19909;-72
2022/04/29 00:03:32;;;;;;;;;;;;;;;4.53;100.00;96823.06;1027054;28;20420;-72
2022/04/29 00:04:02;;;;;;;;;;;;;;;4.52;100.00;96819.66;1022648;28;19945;-72
2022/04/29 00:04:35;;;;;;;;;;;;;;;4.45;100.00;96819.66;1026545;28;19914;-71
2022/04/29 00:05:06;;;;;;;;;;;;;;;4.43;100.00;96815.66;1016839;29;19906;-72
2022/04/29 00:05:36;;;;;;;;;;;;;;;4.42;100.00;96820.03;1017145;29;19911;-72
2022/04/29 00:06:06;;;;;;;;;;;;;;;4.42;100.00;96814.03;1017351;29;19922;-73
2022/04/29 00:06:37;;;;;;;;;;;;;;;4.42;100.00;96808.84;1015991;29;20368;-72
2022/04/29 00:07:07;;;;;;;;;;;;;;;4.40;100.00;96819.44;1021565;29;20035;-72
2022/04/29 00:07:39;;;;;;;;;;;;;;;4.39;100.00;96819.63;1020910;28;19914;-71
2022/04/29 00:08:09;;;;;;;;;;;;;;;4.38;100.00;96818.84;1024813;28;19918;-72
2022/04/29 00:08:42;;;;;;;;;;;;;;;4.39;100.00;96820.44;1025234;28;19945;-72
2022/04/29 00:09:13;;;;;;;;;;;;;;;4.38;100.00;96821.44;1026370;28;19960;-71
2022/04/29 00:09:43;;;;;;;;;;;;;;;4.39;100.00;96815.25;1026449;28;19926;-72
2022/04/29 00:10:14;;;;;;;;;;;;;;;4.38;100.00;96815.44;1017998;28;19958;-71
2022/04/29 00:10:44;;;;;;;;;;;;;;;4.39;100.00;96820.44;1018625;29;19989;-71
2022/04/29 00:11:15;;;;;;;;;;;;;;;4.41;100.00;96817.66;1018258;29;20498;-72
2022/04/29 00:11:47;;;;;;;;;;;;;;;4.41;100.00;96815.84;1018526;28;20641;-72
2022/04/29 00:12:19;;;;;;;;;;;;;;;4.43;100.00;96807.88;1026005;28;19973;-72
2022/04/29 00:12:49;;;;;;;;;;;;;;;4.41;100.00;96813.25;1022824;28;19914;-72
2022/04/29 00:13:20;;;;;;;;;;;;;;;4.41;100.00;96818.44;1022819;29;20694;-71
2022/04/29 00:13:51;;;;;;;;;;;;;;;4.40;100.00;96816.84;1022839;28;19910;-71
2022/04/29 00:14:24;;;;;;;;;;;;;;;4.39;100.00;96812.66;1022281;28;19958;-71
2022/04/29 00:14:57;;;;;;;;;;;;;;;4.38;100.00;96808.44;1022753;28;20411;-72
2022/04/29 00:15:27;;;;;;;;;;;;;;;4.35;100.00;96802.84;1026454;28;20375;-72
2022/04/29 00:15:58;;;;;;;;;;;;;;;4.35;100.00;96803.63;1027169;28;19980;-71
2022/04/29 00:16:28;;;;;;;;;;;;;;;4.32;100.00;96804.03;1030044;28;19917;-71
2022/04/29 00:16:58;;;;;;;;;;;;;;;4.33;100.00;96808.25;1030532;28;19914;-71
2022/04/29 00:17:29;;;;;;;;;;;;;;;4.31;100.00;96807.63;1030831;28;19964;-71
2022/04/29 00:17:59;;;;;;;;;;;;;;;4.31;100.00;96806.84;1026705;28;19925;-72
2022/04/29 00:18:29;;;;;;;;;;;;;;;4.30;100.00;96805.25;1026378;28;20417;-71
2022/04/29 00:19:00;;;;;;;;;;;;;;;4.28;100.00;96802.03;1026860;28;19918;-70
2022/04/29 00:19:30;;;;;;;;;;;;;;;4.29;100.00;96804.41;1026789;28;19918;-71
2022/04/29 00:20:00;;;;;;;;;;;;;;;4.29;100.00;96806.22;1026796;28;19938;-72
2022/04/29 00:20:31;;;;;;;;;;;;;;;4.29;100.00;96801.03;1030878;28;19918;-72
2022/04/29 00:21:04;;;;;;;;;;;;;;;4.29;100.00;96801.81;1033227;28;19921;-72
2022/04/29 00:21:35;;;;;;;;;;;;;;;4.30;100.00;96798.25;1030808;28;19976;-72
2022/04/29 00:22:05;;;;;;;;;;;;;;;4.31;100.00;96802.44;1022618;29;19922;-72
2022/04/29 00:22:35;;;;;;;;;;;;;;;4.30;100.00;96806.03;1022141;28;19911;-71
2022/04/29 00:23:06;;;;;;;;;;;;;;;4.27;100.00;96809.03;1022600;29;19917;-72
2022/04/29 00:23:37;;;;;;;;;;;;;;;4.27;100.00;96806.44;1026862;28;19925;-72
2022/04/29 00:24:09;;;;;;;;;;;;;;;4.27;100.00;96811.63;1026244;28;19953;-72
2022/04/29 00:24:40;;;;;;;;;;;;;;;4.31;100.00;96812.03;1025851;28;19915;-71
2022/04/29 00:25:10;;;;;;;;;;;;;;;4.29;100.00;96803.63;1018800;28;19919;-72
2022/04/29 00:25:40;;;;;;;;;;;;;;;4.25;100.00;96803.22;1019238;29;19966;-72
2022/04/29 00:26:10;;;;;;;;;;;;;;;4.23;100.00;96805.22;1019029;28;19915;-71
2022/04/29 00:26:41;;;;;;;;;;;;;;;4.22;100.00;96803.59;1027215;28;20360;-72
2022/04/29 00:27:11;;;;;;;;;;;;;;;4.21;100.00;96810.59;1022544;28;19919;-71
2022/04/29 00:27:41;;;;;;;;;;;;;;;4.24;100.00;96809.41;1022727;29;19921;-72
2022/04/29 00:28:12;;;;;;;;;;;;;;;4.25;100.00;96809.19;1022712;28;19919;-71
2022/04/29 00:28:42;;;;;;;;;;;;;;;4.23;100.00;96805.22;1026677;28;19915;-71
2022/04/29 00:29:12;;;;;;;;;;;;;;;4.24;100.00;96806.81;1024409;28;19927;-72
2022/04/29 00:29:42;;;;;;;;;;;;;;;4.25;100.00;96808.41;1025417;28;19911;-72
2022/04/29 00:30:13;;;;;;;;;;;;;;;4.27;100.00;96806.44;1016610;28;20080;-73
2022/04/29 00:30:43;;;;;;;;;;;;;;;4.23;100.00;96800.81;1011965;29;19920;-71
2022/04/29 00:31:13;;;;;;;;;;;;;;;4.21;100.00;96802.00;1020503;29;20303;-72
2022/04/29 00:31:44;;;;;;;;;;;;;;;4.21;100.00;96802.00;1020226;28;19924;-71
2022/04/29 00:32:14;;;;;;;;;;;;;;;4.18;100.00;96799.78;1018718;29;19923;-71
2022/04/29 00:32:44;;;;;;;;;;;;;;;4.18;100.00;96802.41;1018398;29;20451;-72
2022/04/29 00:33:15;;;;;;;;;;;;;;;4.14;100.00;96801.97;1019524;29;19925;-71
2022/04/29 00:33:45;;;;;;;;;;;;;;;4.12;100.00;96803.16;1030490;28;20419;-72
2022/04/29 00:34:15;;;;;;;;;;;;;;;3.78;100.00;96755.53;1029932;28;19910;-71
2022/04/29 00:34:45;;;;;;;;;;;;;;;4.09;100.00;96804.38;1024995;28;19925;-71
2022/04/29 00:35:16;;;;;;;;;;;;;;;4.08;100.00;96802.75;1024768;28;19914;-72
2022/04/29 00:35:46;;;;;;;;;;;;;;;4.07;100.00;96801.16;1017592;29;20583;-72
2022/04/29 00:36:16;;;;;;;;;;;;;;;4.06;100.00;96809.13;1021714;28;19930;-71
2022/04/29 00:36:47;;;;;;;;;;;;;;;4.03;100.00;96794.78;1020224;28;19933;-71
2022/04/29 00:37:17;;;;;;;;;;;;;;;4.02;100.00;96798.34;1020476;28;20427;-72
2022/04/29 00:37:53;;;;;;;;;;;;;;;4.01;100.00;96810.53;1025162;28;19919;-71
2022/04/29 00:38:24;;;;;;;;;;;;;;;3.99;100.00;96807.34;1023713;28;20051;-70
2022/04/29 00:38:54;;;;;;;;;;;;;;;3.99;100.00;96796.97;1026653;28;19926;-72
2022/04/29 00:39:24;;;;;;;;;;;;;;;3.94;100.00;96801.91;1023340;28;19925;-71
2022/04/29 00:39:56;;;;;;;;;;;;;;;3.94;100.00;96801.91;1026430;28;19929;-72
2022/04/29 00:40:27;;;;;;;;;;;;;;;3.95;100.00;96790.53;1026498;28;20000;-71
2022/04/29 00:40:57;;;;;;;;;;;;;;;3.92;100.00;96798.72;1029653;28;19953;-72
2022/04/29 00:41:30;;;;;;;;;;;;;;;3.91;100.00;96804.09;1028733;28;20016;-71
2022/04/29 00:42:08;;;;;;;;;;;;;;;3.88;100.00;96801.88;1030219;28;19925;-71
2022/04/29 00:42:39;;;;;;;;;;;;;;;3.87;100.00;96801.09;1030927;28;19952;-72
2022/04/29 00:43:11;;;;;;;;;;;;;;;3.89;100.00;96801.72;1031577;28;20485;-72
2022/04/29 00:43:41;;;;;;;;;;;;;;;3.94;100.00;96796.72;1027652;28;21585;-72
2022/04/29 00:44:11;;;;;;;;;;;;;;;3.96;100.00;96794.75;1023809;29;19961;-72
2022/04/29 00:44:42;;;;;;;;;;;;;;;3.98;100.00;96795.34;1019915;29;19918;-72
2022/04/29 00:45:13;;;;;;;;;;;;;;;3.98;100.00;96792.75;1020424;29;20706;-71
2022/04/29 00:45:43;;;;;;;;;;;;;;;4.00;100.00;96795.94;1022643;29;19918;-72
2022/04/29 00:46:14;;;;;;;;;;;;;;;4.04;100.00;96795.56;1022825;28;19914;-71
2022/04/29 00:46:44;;;;;;;;;;;;;;;4.06;100.00;96794.38;1025953;28;19926;-72
2022/04/29 00:47:18;;;;;;;;;;;;;;;4.07;100.00;96793.38;1023842;28;19918;-72
2022/04/29 00:47:49;;;;;;;;;;;;;;;4.08;100.00;96794.97;1019923;28;19914;-72
2022/04/29 00:48:20;;;;;;;;;;;;;;;4.08;100.00;96783.78;1018940;29;19911;-72
2022/04/29 00:48:50;;;;;;;;;;;;;;;4.07;100.00;96793.38;1022224;28;19937;-70
2022/04/29 00:49:21;;;;;;;;;;;;;;;4.04;100.00;96785.97;1026354;28;19961;-70
2022/04/29 00:49:51;;;;;;;;;;;;;;;4.05;100.00;96791.97;1034293;28;19914;-72
2022/04/29 00:50:23;;;;;;;;;;;;;;;4.05;100.00;96784.19;1028599;28;19927;-71
2022/04/29 00:50:54;;;;;;;;;;;;;;;4.04;100.00;96785.19;1022348;28;19910;-71
2022/04/29 00:51:24;;;;;;;;;;;;;;;4.03;100.00;96788.78;1025272;28;20376;-72
2022/04/29 00:51:55;;;;;;;;;;;;;;;3.97;100.00;96785.94;1022383;29;19938;-72
2022/04/29 00:52:25;;;;;;;;;;;;;;;3.96;100.00;96784.34;1026567;28;19921;-72
2022/04/29 00:52:59;;;;;;;;;;;;;;;3.96;100.00;96781.75;1026682;28;19911;-72
2022/04/29 00:53:29;;;;;;;;;;;;;;;3.94;100.00;96782.94;1022620;28;19910;-72
2022/04/29 00:54:00;;;;;;;;;;;;;;;3.94;100.00;96780.34;1018587;29;20039;-72
2022/04/29 00:54:31;;;;;;;;;;;;;;;3.90;100.00;96784.34;1021811;29;19957;-72
2022/04/29 00:55:03;;;;;;;;;;;;;;;3.88;100.00;96783.72;1022477;29;19921;-72
2022/04/29 00:55:33;;;;;;;;;;;;;;;3.85;100.00;96787.50;1022367;28;20372;-72
2022/04/29 00:56:04;;;;;;;;;;;;;;;3.83;100.00;96791.31;1022668;28;19918;-72
2022/04/29 00:56:35;;;;;;;;;;;;;;;3.80;100.00;96789.88;1025911;28;19910;-71
2022/04/29 00:57:07;;;;;;;;;;;;;;;3.80;100.00;96784.69;1018691;29;19923;-72
2022/04/29 00:57:41;;;;;;;;;;;;;;;3.81;100.00;96780.28;1022363;28;19953;-72
2022/04/29 00:58:16;;;;;;;;;;;;;;;3.83;100.00;96789.50;1022424;29;20688;-71
2022/04/29 00:58:49;;;;;;;;;;;;;;;3.80;100.00;96784.69;1018631;29;19973;-72
2022/04/29 00:59:21;;;;;;;;;;;;;;;3.85;100.00;96787.50;1022455;28;20473;-71
2022/04/29 01:00:04;;;;;;;;;;;;;;;3.83;100.00;96789.50;1022618;29;20448;-72
2022/04/29 01:00:35;;;;;;;;;;;;;;;3.85;100.00;96786.69;1020776;28;20411;-72
2022/04/29 01:01:06;;;;;;;;;;;;;;;3.85;100.00;96787.50;1022381;28;19923;-72
2022/04/29 01:01:37;;;;;;;;;;;;;;;3.85;100.00;96784.91;1026407;28;19940;-72
2022/04/29 01:02:07;;;;;;;;;;;;;;;3.84;100.00;96790.28;1017562;29;19927;-72
2022/04/29 01:02:38;;;;;;;;;;;;;;;3.81;100.00;96791.47;1018582;29;20886;-71
2022/04/29 01:03:12;;;;;;;;;;;;;;;3.85;100.00;96790.09;1018699;29;19927;-71
2022/04/29 01:03:42;;;;;;;;;;;;;;;3.84;100.00;96790.28;1019716;28;19969;-71
2022/04/29 01:04:18;;;;;;;;;;;;;;;3.81;100.00;96791.47;1022953;28;20498;-72
2022/04/29 01:04:53;;;;;;;;;;;;;;;3.82;100.00;96792.28;1014723;29;19919;-71
2022/04/29 01:05:23;;;;;;;;;;;;;;;3.85;100.00;96794.47;1018396;29;19922;-72
2022/04/29 01:05:54;;;;;;;;;;;;;;;3.82;100.00;96785.28;1030685;28;19922;-72
2022/04/29 01:06:28;;;;;;;;;;;;;;;3.82;100.00;96798.25;1012963;29;19923;-73
2022/04/29 01:06:58;;;;;;;;;;;;;;;3.83;100.00;96786.91;1013722;29;20486;-72
2022/04/29 01:07:29;;;;;;;;;;;;;;;3.82;100.00;96787.88;1026350;28;19918;-74
2022/04/29 01:07:59;;;;;;;;;;;;;;;3.81;100.00;96791.47;1022650;29;19922;-72
2022/04/29 01:08:30;;;;;;;;;;;;;;;3.80;100.00;96791.69;1022389;28;20424;-72
2022/04/29 01:09:00;;;;;;;;;;;;;;;3.79;100.00;96785.69;1021384;28;19961;-73
2022/04/29 01:09:31;;;;;;;;;;;;;;;3.77;100.00;96792.88;1026922;28;19918;-73
2022/04/29 01:10:01;;;;;;;;;;;;;;;3.76;100.00;96788.69;1022869;28;19915;-73
2022/04/29 01:10:32;;;;;;;;;;;;;;;3.75;100.00;96792.25;1018466;29;19917;-72
2022/04/29 01:11:02;;;;;;;;;;;;;;;3.73;100.00;96795.03;1022344;29;19957;-72
2022/04/29 01:11:33;;;;;;;;;;;;;;;3.41;100.00;96747.19;1018472;28;19954;-73
2022/04/29 01:12:04;;;;;;;;;;;;;;;3.70;100.00;96789.44;1014621;29;19954;-72
2022/04/29 01:12:35;;;;;;;;;;;;;;;3.69;100.00;96787.81;1018465;29;19919;-72
2022/04/29 01:13:05;;;;;;;;;;;;;;;3.71;100.00;96791.03;1018768;29;19915;-72
2022/04/29 01:13:38;;;;;;;;;;;;;;;3.73;100.00;96794.25;1019581;29;20429;-72
2022/04/29 01:14:09;;;;;;;;;;;;;;;3.74;100.00;96790.66;1015819;29;19971;-73
2022/04/29 01:14:40;;;;;;;;;;;;;;;3.73;100.00;96786.47;1022196;29;19926;-74
2022/04/29 01:15:13;;;;;;;;;;;;;;;3.72;100.00;96784.84;1021375;29;20432;-72
2022/04/29 01:15:44;;;;;;;;;;;;;;;3.69;100.00;96780.84;1023079;28;20013;-72
2022/04/29 01:16:14;;;;;;;;;;;;;;;3.67;100.00;96784.63;1018958;29;20456;-72
2022/04/29 01:16:44;;;;;;;;;;;;;;;3.65;100.00;96781.41;1017876;29;19950;-72
2022/04/29 01:17:15;;;;;;;;;;;;;;;3.62;100.00;96779.22;1022531;28;19922;-73
2022/04/29 01:17:46;;;;;;;;;;;;;;;3.61;100.00;96785.41;1018019;29;19919;-74
2022/04/29 01:18:17;;;;;;;;;;;;;;;3.57;100.00;96781.59;1018669;29;19954;-73
2022/04/29 01:18:48;;;;;;;;;;;;;;;3.54;100.00;96778.38;1014820;29;19919;-73
2022/04/29 01:19:22;;;;;;;;;;;;;;;3.54;100.00;96775.78;1024800;28;19923;-72
2022/04/29 01:19:52;;;;;;;;;;;;;;;3.51;100.00;96777.97;1022687;28;20600;-72
2022/04/29 01:20:24;;;;;;;;;;;;;;;3.49;100.00;96782.56;1030614;28;19929;-73
2022/04/29 01:21:04;;;;;;;;;;;;;;;3.46;100.00;96775.94;1026281;28;19918;-72
2022/04/29 01:21:34;;;;;;;;;;;;;;;3.46;100.00;96773.34;1022529;28;19918;-71
2022/04/29 01:22:05;;;;;;;;;;;;;;;3.44;100.00;96772.75;1018827;28;19935;-72
2022/04/29 01:22:35;;;;;;;;;;;;;;;3.41;100.00;96774.91;1022422;28;19919;-72
2022/04/29 01:23:06;;;;;;;;;;;;;;;3.39;100.00;96772.53;1022469;29;19941;-72
2022/04/29 01:23:36;;;;;;;;;;;;;;;3.41;100.00;96772.31;1022643;29;20029;-72
2022/04/29 01:24:07;;;;;;;;;;;;;;;3.45;100.00;96779.53;1019724;28;20460;-72
2022/04/29 01:24:38;;;;;;;;;;;;;;;3.43;100.00;96778.94;1023227;28;19977;-72
2022/04/29 01:25:08;;;;;;;;;;;;;;;3.41;100.00;96775.72;1021323;28;19962;-73
2022/04/29 01:25:39;;;;;;;;;;;;;;;3.40;100.00;96778.50;1019307;29;20471;-72
2022/04/29 01:26:14;;;;;;;;;;;;;;;3.39;100.00;96779.50;1023542;29;20025;-73
2022/04/29 01:26:45;;;;;;;;;;;;;;;3.35;100.00;96781.66;1018430;28;19933;-72
2022/04/29 01:27:15;;;;;;;;;;;;;;;3.35;100.00;96776.47;1023187;28;20032;-73
2022/04/29 01:27:46;;;;;;;;;;;;;;;3.32;100.00;96776.88;1019229;28;19918;-72
2022/04/29 01:28:17;;;;;;;;;;;;;;;3.30;100.00;96779.66;1023062;28;19918;-72
2022/04/29 01:28:48;;;;;;;;;;;;;;;3.28;100.00;96775.63;1023426;29;19989;-71
2022/04/29 01:29:18;;;;;;;;;;;;;;;3.26;100.00;96773.25;1015082;29;19923;-72
2022/04/29 01:29:50;;;;;;;;;;;;;;;3.24;100.00;96771.81;1015413;29;19907;-72
2022/04/29 01:30:23;;;;;;;;;;;;;;;3.21;100.00;96774.78;1013996;29;20002;-72
2022/04/29 01:30:54;;;;;;;;;;;;;;;3.20;100.00;96773.19;1015340;29;19959;-73
2022/04/29 01:31:25;;;;;;;;;;;;;;;3.18;100.00;96772.56;1019093;29;19922;-72
2022/04/29 01:31:55;;;;;;;;;;;;;;;3.22;100.00;96779.81;1011621;29;20416;-73
2022/04/29 01:32:26;;;;;;;;;;;;;;;3.25;100.00;96776.00;1012292;29;19919;-72
2022/04/29 01:32:57;;;;;;;;;;;;;;;3.24;100.00;96779.59;1011873;29;19960;-72
2022/04/29 01:33:32;;;;;;;;;;;;;;;3.22;100.00;96776.38;1019292;28;19927;-72
2022/04/29 01:34:02;;;;;;;;;;;;;;;3.18;100.00;96770.00;1023390;29;19914;-72
2022/04/29 01:34:33;;;;;;;;;;;;;;;3.17;100.00;96773.56;1022854;29;19956;-72
2022/04/29 01:35:03;;;;;;;;;;;;;;;3.14;100.00;96773.97;1011242;29;20723;-72
2022/04/29 01:35:34;;;;;;;;;;;;;;;3.12;100.00;96771.56;1015169;29;19915;-73
2022/04/29 01:36:05;;;;;;;;;;;;;;;3.12;100.00;96768.97;1015245;29;20666;-72
2022/04/29 01:36:35;;;;;;;;;;;;;;;3.09;100.00;96765.97;1014572;29;20759;-72
2022/04/29 01:37:06;;;;;;;;;;;;;;;3.07;100.00;96772.13;1015103;29;19926;-72
2022/04/29 01:37:37;;;;;;;;;;;;;;;3.07;100.00;96772.13;1018989;29;19915;-72
2022/04/29 01:38:07;;;;;;;;;;;;;;;3.06;100.00;96773.13;1023155;29;20332;-72
2022/04/29 01:38:38;;;;;;;;;;;;;;;3.07;100.00;96776.50;1019126;29;20432;-72
2022/04/29 01:39:08;;;;;;;;;;;;;;;3.06;100.00;96767.94;1023127;28;19922;-72
2022/04/29 01:39:38;;;;;;;;;;;;;;;3.03;100.00;96765.72;1018935;28;19915;-72
2022/04/29 01:40:09;;;;;;;;;;;;;;;3.04;100.00;96764.72;1013533;29;19916;-72
2022/04/29 01:40:40;;;;;;;;;;;;;;;3.05;100.00;96765.50;1019028;29;19915;-72
2022/04/29 01:41:11;;;;;;;;;;;;;;;3.01;100.00;96765.09;1019502;29;19954;-71
2022/04/29 01:41:41;;;;;;;;;;;;;;;2.98;100.00;96760.28;1022941;28;20002;-70
2022/04/29 01:42:11;;;;;;;;;;;;;;;2.99;100.00;96761.91;1023218;28;20574;-72
2022/04/29 01:42:42;;;;;;;;;;;;;;;2.98;100.00;96765.47;1027225;28;20376;-71
2022/04/29 01:43:12;;;;;;;;;;;;;;;3.00;100.00;96758.31;1028262;28;19956;-71
2022/04/29 01:43:42;;;;;;;;;;;;;;;2.96;100.00;96762.28;1032163;28;19918;-72
2022/04/29 01:44:15;;;;;;;;;;;;;;;2.96;100.00;96762.28;1024196;28;19915;-71
2022/04/29 01:44:46;;;;;;;;;;;;;;;3.01;100.00;96759.91;1018801;29;19911;-71
2022/04/29 01:45:16;;;;;;;;;;;;;;;3.01;100.00;96751.34;1019170;29;19915;-72
2022/04/29 01:45:46;;;;;;;;;;;;;;;3.01;100.00;96754.72;1015956;29;19962;-71
2022/04/29 01:46:17;;;;;;;;;;;;;;;2.99;100.00;96761.09;1026527;28;19918;-71
2022/04/29 01:46:47;;;;;;;;;;;;;;;2.96;100.00;96761.47;1030368;28;19920;-72
2022/04/29 01:47:17;;;;;;;;;;;;;;;2.96;100.00;96758.88;1026903;28;19976;-72
2022/04/29 01:47:48;;;;;;;;;;;;;;;2.98;100.00;96760.28;1027159;28;19941;-72
2022/04/29 01:48:18;;;;;;;;;;;;;;;3.03;100.00;96751.94;1026658;28;20512;-70
2022/04/29 01:48:48;;;;;;;;;;;;;;;3.06;100.00;96754.97;1026928;28;19910;-71
2022/04/29 01:49:18;;;;;;;;;;;;;;;3.06;100.00;96751.56;1026924;28;19954;-71
2022/04/29 01:49:49;;;;;;;;;;;;;;;3.12;100.00;96750.81;1026895;28;19915;-71
2022/04/29 01:50:19;;;;;;;;;;;;;;;3.12;100.00;96753.41;1018776;29;19922;-71
2022/04/29 01:50:49;;;;;;;;;;;;;;;3.17;100.00;96755.44;1019161;29;19974;-70
2022/04/29 01:51:20;;;;;;;;;;;;;;;3.14;100.00;96750.63;1019210;29;20048;-70
2022/04/29 01:51:50;;;;;;;;;;;;;;;3.16;100.00;96756.44;1019537;29;20379;-71
2022/04/29 01:52:20;;;;;;;;;;;;;;;3.17;100.00;96755.44;1026745;28;20416;-71
2022/04/29 01:52:50;;;;;;;;;;;;;;;3.20;100.00;96753.25;1023148;28;19914;-72
2022/04/29 01:53:21;;;;;;;;;;;;;;;3.22;100.00;96759.06;1027733;28;19926;-71
2022/04/29 01:53:53;;;;;;;;;;;;;;;3.22;100.00;96753.06;1021586;28;19915;-72
2022/04/29 01:54:24;;;;;;;;;;;;;;;3.26;100.00;96762.06;1017356;29;20373;-71
2022/04/29 01:54:54;;;;;;;;;;;;;;;3.25;100.00;96760.44;1022517;29;19953;-70
2022/04/29 01:55:24;;;;;;;;;;;;;;;3.29;100.00;96759.09;1031724;28;19925;-71
2022/04/29 01:55:56;;;;;;;;;;;;;;;3.25;100.00;96760.44;1035888;28;20012;-70
2022/04/29 01:56:35;;;;;;;;;;;;;;;3.25;100.00;96761.28;1026579;28;19926;-71
2022/04/29 01:57:06;;;;;;;;;;;;;;;3.22;100.00;96758.22;1029965;28;20421;-71
2022/04/29 01:57:36;;;;;;;;;;;;;;;3.21;100.00;96759.22;1029020;28;19922;-72
2022/04/29 01:58:06;;;;;;;;;;;;;;;3.17;100.00;96758.81;1032738;28;19917;-71
2022/04/29 01:58:37;;;;;;;;;;;;;;;3.15;100.00;96757.41;1034621;28;19924;-71
2022/04/29 01:59:08;;;;;;;;;;;;;;;3.11;100.00;96754.38;1031740;28;19971;-71
2022/04/29 01:59:39;;;;;;;;;;;;;;;3.10;100.00;96757.19;1035255;28;19972;-71
2022/04/29 02:00:10;;;;;;;;;;;;;;;3.05;100.00;96755.13;1028984;28;19961;-72
2022/04/29 02:00:40;;;;;;;;;;;;;;;3.01;100.00;96753.91;1030010;28;19914;-71
2022/04/29 02:01:11;;;;;;;;;;;;;;;2.98;100.00;96760.28;1027631;28;19902;-71
2022/04/29 02:01:41;;;;;;;;;;;;;;;2.98;100.00;96752.50;1027980;28;19918;-71
2022/04/29 02:02:12;;;;;;;;;;;;;;;3.01;100.00;96753.91;1024914;28;19942;-71
2022/04/29 02:02:43;;;;;;;;;;;;;;;3.04;100.00;96749.16;1023565;28;19922;-71
2022/04/29 02:03:13;;;;;;;;;;;;;;;3.05;100.00;96752.53;1027753;28;19949;-71
2022/04/29 02:03:43;;;;;;;;;;;;;;;3.04;100.00;96759.53;1027757;28;19918;-71
2022/04/29 02:04:14;;;;;;;;;;;;;;;3.00;100.00;96750.53;1024014;28;19941;-71
2022/04/29 02:04:44;;;;;;;;;;;;;;;3.00;100.00;96760.91;1026495;28;19925;-70
2022/04/29 02:05:15;;;;;;;;;;;;;;;3.00;100.00;96763.50;1017469;29;19926;-71
2022/04/29 02:05:46;;;;;;;;;;;;;;;3.06;100.00;96761.94;1018213;29;20518;-71
2022/04/29 02:06:17;;;;;;;;;;;;;;;3.09;100.00;96763.38;1020118;29;20018;-71
2022/04/29 02:06:47;;;;;;;;;;;;;;;3.10;100.00;96762.38;1023434;28;19980;-71
2022/04/29 02:07:18;;;;;;;;;;;;;;;3.10;100.00;96759.78;1027886;28;19922;-70
2022/04/29 02:07:48;;;;;;;;;;;;;;;3.11;100.00;96761.38;1027712;28;20367;-71
2022/04/29 02:08:18;;;;;;;;;;;;;;;3.10;100.00;96762.38;1023884;29;19914;-71
2022/04/29 02:08:49;;;;;;;;;;;;;;;3.08;100.00;96759.94;1024019;28;19919;-71
2022/04/29 02:09:19;;;;;;;;;;;;;;;3.09;100.00;96760.78;1023749;28;19922;-71
2022/04/29 02:09:49;;;;;;;;;;;;;;;3.07;100.00;96753.16;1027845;28;19918;-71
2022/04/29 02:10:20;;;;;;;;;;;;;;;3.06;100.00;96751.56;1027951;28;19922;-71
2022/04/29 02:10:50;;;;;;;;;;;;;;;3.01;100.00;96748.75;1021978;28;20361;-71
2022/04/29 02:11:21;;;;;;;;;;;;;;;2.97;100.00;96753.50;1027627;28;19937;-71
2022/04/29 02:12:06;;;;;;;;;;;;;;;2.96;100.00;96749.31;1028018;28;19924;-72
2022/04/29 02:12:37;;;;;;;;;;;;;;;2.93;100.00;96747.09;1025965;28;20281;-71
2022/04/29 02:13:07;;;;;;;;;;;;;;;2.93;100.00;96748.91;1023727;28;19919;-72
2022/04/29 02:13:38;;;;;;;;;;;;;;;2.91;100.00;96749.06;1021810;29;19921;-71
2022/04/29 02:14:09;;;;;;;;;;;;;;;2.90;100.00;96747.47;1024079;28;20017;-72
2022/04/29 02:14:40;;;;;;;;;;;;;;;2.93;100.00;96741.13;1024621;28;19988;-70
2022/04/29 02:15:10;;;;;;;;;;;;;;;2.96;100.00;96753.69;1023900;28;20014;-71
2022/04/29 02:15:40;;;;;;;;;;;;;;;2.93;100.00;96749.69;1023747;28;19918;-70
2022/04/29 02:16:11;;;;;;;;;;;;;;;2.96;100.00;96753.69;1023945;28;19918;-71
2022/04/29 02:16:41;;;;;;;;;;;;;;;2.97;100.00;96750.13;1027019;28;19928;-71
2022/04/29 02:17:11;;;;;;;;;;;;;;;2.96;100.00;96746.72;1023749;28;19922;-71
2022/04/29 02:17:42;;;;;;;;;;;;;;;2.99;100.00;96743.75;1023767;28;19963;-71
2022/04/29 02:18:12;;;;;;;;;;;;;;;2.98;100.00;96756.88;1027865;28;19918;-71
2022/04/29 02:18:42;;;;;;;;;;;;;;;2.99;100.00;96750.72;1027887;28;20411;-71
2022/04/29 02:19:13;;;;;;;;;;;;;;;2.98;100.00;96738.75;1031807;28;19922;-70
2022/04/29 02:19:43;;;;;;;;;;;;;;;2.97;100.00;96747.53;1032138;28;19913;-70
2022/04/29 02:20:16;;;;;;;;;;;;;;;2.97;100.00;96753.50;1034755;28;19921;-71
2022/04/29 02:20:49;;;;;;;;;;;;;;;2.96;100.00;96751.13;1031522;28;19917;-71
2022/04/29 02:21:19;;;;;;;;;;;;;;;2.96;100.00;96746.72;1032019;28;20632;-71
2022/04/29 02:21:49;;;;;;;;;;;;;;;2.94;100.00;96742.72;1031938;28;19921;-71
2022/04/29 02:22:20;;;;;;;;;;;;;;;2.93;100.00;96738.53;1027768;28;19925;-71
2022/04/29 02:22:50;;;;;;;;;;;;;;;2.92;100.00;96748.09;1023877;28;19922;-71
2022/04/29 02:23:21;;;;;;;;;;;;;;;2.91;100.00;96743.88;1023844;28;20009;-70
2022/04/29 02:23:52;;;;;;;;;;;;;;;2.90;100.00;96737.09;1024039;28;19918;-71
2022/04/29 02:24:22;;;;;;;;;;;;;;;2.90;100.00;96747.47;1026077;28;19919;-71
2022/04/29 02:24:53;;;;;;;;;;;;;;;2.89;100.00;96751.06;1025672;28;19934;-71
2022/04/29 02:25:23;;;;;;;;;;;;;;;2.87;100.00;96747.84;1027826;28;19911;-71
2022/04/29 02:25:53;;;;;;;;;;;;;;;2.88;100.00;96744.25;1023726;28;19926;-71
2022/04/29 02:26:24;;;;;;;;;;;;;;;2.88;100.00;96748.66;1023079;28;19919;-70
2022/04/29 02:26:54;;;;;;;;;;;;;;;2.86;100.00;96741.06;1023907;29;19926;-71
2022/04/29 02:27:24;;;;;;;;;;;;;;;2.84;100.00;96743.03;1015995;29;19919;-71
2022/04/29 02:27:55;;;;;;;;;;;;;;;2.81;100.00;96744.22;1016034;29;19915;-72
2022/04/29 02:28:27;;;;;;;;;;;;;;;2.80;100.00;96741.81;1014715;29;19925;-72
2022/04/29 02:28:58;;;;;;;;;;;;;;;2.79;100.00;96738.44;1016625;29;19926;-71
2022/04/29 02:29:28;;;;;;;;;;;;;;;2.78;100.00;96734.25;1024159;28;19930;-71
2022/04/29 02:29:58;;;;;;;;;;;;;;;2.78;100.00;96741.19;1023911;28;20009;-71
2022/04/29 02:30:30;;;;;;;;;;;;;;;2.77;100.00;96742.19;1028012;28;19922;-71
2022/04/29 02:31:01;;;;;;;;;;;;;;;2.78;100.00;96736.00;1031830;28;20026;-71
2022/04/29 02:31:31;;;;;;;;;;;;;;;2.79;100.00;96740.22;1028019;28;19925;-71
2022/04/29 02:32:01;;;;;;;;;;;;;;;2.79;100.00;96740.22;1031657;28;19913;-71
2022/04/29 02:32:32;;;;;;;;;;;;;;;2.79;100.00;96735.84;1027849;28;19968;-71
2022/04/29 02:33:02;;;;;;;;;;;;;;;2.78;100.00;96739.44;1027916;28;19918;-72
2022/04/29 02:33:32;;;;;;;;;;;;;;;2.78;100.00;96733.41;1020639;28;19914;-71
2022/04/29 02:34:03;;;;;;;;;;;;;;;2.74;100.00;96729.59;1015839;29;19945;-72
2022/04/29 02:34:36;;;;;;;;;;;;;;;2.72;100.00;96736.78;1015835;29;19922;-72
2022/04/29 02:35:06;;;;;;;;;;;;;;;2.68;100.00;96732.94;1016712;29;20433;-71
2022/04/29 02:35:37;;;;;;;;;;;;;;;2.66;100.00;96730.56;1019842;29;19918;-71
2022/04/29 02:36:09;;;;;;;;;;;;;;;2.68;100.00;96730.34;1019908;29;19974;-71
2022/04/29 02:36:41;;;;;;;;;;;;;;;2.66;100.00;96730.56;1023884;28;20025;-71
2022/04/29 02:37:11;;;;;;;;;;;;;;;2.67;100.00;96737.34;1027960;28;19918;-71
2022/04/29 02:37:41;;;;;;;;;;;;;;;2.69;100.00;96730.19;1028237;28;19922;-72
2022/04/29 02:38:12;;;;;;;;;;;;;;;2.71;100.00;96737.75;1031824;28;19961;-72
2022/04/29 02:38:44;;;;;;;;;;;;;;;2.73;100.00;96730.59;1028539;28;19915;-71
2022/04/29 02:39:14;;;;;;;;;;;;;;;2.72;100.00;96729.00;1027902;28;19918;-72
2022/04/29 02:39:44;;;;;;;;;;;;;;;2.73;100.00;96728.81;1023726;29;19925;-71
2022/04/29 02:40:15;;;;;;;;;;;;;;;2.70;100.00;96730.97;1021883;28;19930;-71
2022/04/29 02:40:45;;;;;;;;;;;;;;;2.70;100.00;96725.81;1023890;29;19926;-72
2022/04/29 02:41:16;;;;;;;;;;;;;;;2.69;100.00;96730.19;1025764;28;20002;-72
2022/04/29 02:41:46;;;;;;;;;;;;;;;2.71;100.00;96733.38;1025811;28;20072;-72